Time;durP1;ratioP1;P1;durP2;ratioP2;P2;SDS_P1;SDS_P2;PMS_P1;PMS_P2;Temp;Humidity;BMP_temperature;BMP_pressure;BME280_temperature;BME280_humidity;BME280_pressure;Samples;Min_cycle;Max_cycle;Signal;HPM_P1;HPM_P2
2022/12/21 00:02:03;;;;;;;43.15;26.15;;;;;;;21.18;20.29;98328.19;4992355;28;20414;-93
2022/12/21 00:04:29;;;;;;;45.85;27.13;;;;;;;20.79;20.42;98335.16;4988320;28;20434;-92
2022/12/21 00:06:56;;;;;;;36.15;22.70;;;;;;;20.79;20.86;98324.00;4990602;28;20453;-92
2022/12/21 00:09:23;;;;;;;36.72;22.55;;;;;;;20.96;21.23;98311.91;4966313;28;20427;-92
2022/12/21 00:11:49;;;;;;;39.58;24.40;;;;;;;20.86;20.44;98308.00;4993456;28;20415;-92
2022/12/21 00:14:16;;;;;;;42.87;26.40;;;;;;;20.98;20.50;98306.75;4977745;28;20420;-92
2022/12/21 00:16:43;;;;;;;43.47;25.42;;;;;;;21.20;20.08;98302.63;4992869;28;20770;-92
2022/12/21 00:19:15;;;;;;;42.80;25.35;;;;;;;21.17;20.19;98301.44;4994008;28;20407;-92
2022/12/21 00:21:42;;;;;;;43.78;25.30;;;;;;;20.87;20.55;98289.25;4982856;28;20409;-90
2022/12/21 00:24:08;;;;;;;41.88;25.33;;;;;;;20.90;19.99;98297.63;4983665;28;20425;-93
2022/12/21 00:26:36;;;;;;;47.67;29.20;;;;;;;20.60;20.60;98300.16;4984711;28;20421;-93
2022/12/21 00:29:04;;;;;;;54.40;31.50;;;;;;;19.96;20.18;98310.66;4986831;28;20416;-92
2022/12/21 00:31:33;;;;;;;55.30;32.40;;;;;;;19.37;20.62;98306.72;4978758;28;20416;-93
2022/12/21 00:33:59;;;;;;;48.45;30.95;;;;;;;19.24;21.45;98305.50;4991458;28;20456;-93
2022/12/21 00:36:28;;;;;;;46.33;29.17;;;;;;;19.56;21.65;98299.94;4970420;28;20882;-93
2022/12/21 00:38:56;;;;;;;45.55;29.95;;;;;;;20.16;21.08;98299.88;4983457;28;20979;-92
2022/12/21 00:41:24;;;;;;;43.95;27.58;;;;;;;20.57;21.03;98285.03;4977952;28;20425;-93
2022/12/21 00:43:52;;;;;;;43.03;27.90;;;;;;;20.83;20.67;98292.06;4985390;28;20431;-93
2022/12/21 00:46:26;;;;;;;48.67;30.45;;;;;;;20.51;19.79;98305.38;4982987;28;20412;-93
2022/12/21 00:48:54;;;;;;;47.17;28.93;;;;;;;20.53;20.61;98301.00;4990309;28;20496;-93
2022/12/21 00:51:22;;;;;;;41.80;26.55;;;;;;;20.76;20.69;98300.47;4992026;28;20438;-93
2022/12/21 00:53:49;;;;;;;40.47;26.20;;;;;;;20.99;19.50;98289.59;4990747;28;20929;-93
2022/12/21 00:56:16;;;;;;;51.07;30.73;;;;;;;19.96;20.50;98302.31;4982944;28;20505;-92
2022/12/21 00:58:42;;;;;;;50.00;30.13;;;;;;;19.86;20.44;98300.34;4988209;28;20496;-92
2022/12/21 01:01:15;;;;;;;42.05;26.73;;;;;;;20.22;20.87;98289.94;5003474;28;20422;-93
2022/12/21 01:03:42;;;;;;;44.60;27.40;;;;;;;20.46;20.08;98291.84;4994547;28;20407;-93
2022/12/21 01:06:23;;;;;;;41.70;25.38;;;;;;;20.83;20.46;98291.28;4979321;28;20552;-93
2022/12/21 01:08:50;;;;;;;38.53;24.33;;;;;;;21.11;20.33;98293.91;4983719;28;20537;-92
2022/12/21 01:11:18;;;;;;;41.85;25.38;;;;;;;21.06;18.84;98295.16;4988122;28;20476;-92
2022/12/21 01:13:45;;;;;;;40.83;24.00;;;;;;;20.54;20.54;98296.97;4984482;28;20485;-92
2022/12/21 01:16:14;;;;;;;43.03;25.60;;;;;;;20.72;19.93;98294.13;4988892;28;20530;-92
2022/12/21 01:18:40;;;;;;;41.92;25.60;;;;;;;20.93;20.05;98290.44;4987252;28;20423;-92
2022/12/21 01:21:06;;;;;;;36.95;22.67;;;;;;;21.13;20.09;98283.94;4975188;28;20411;-93
2022/12/21 01:23:33;;;;;;;46.15;27.67;;;;;;;20.31;19.73;98270.78;4987081;28;20509;-92
2022/12/21 01:25:59;;;;;;;41.15;24.60;;;;;;;20.10;21.09;98279.97;4991928;28;20902;-92
2022/12/21 01:28:25;;;;;;;38.45;24.67;;;;;;;20.52;19.86;98267.91;4991432;28;20392;-95
2022/12/21 01:30:51;;;;;;;42.10;26.27;;;;;;;20.13;20.47;98270.81;4992673;28;20395;-94
2022/12/21 01:33:19;;;;;;;40.77;24.47;;;;;;;20.58;20.68;98261.50;4988306;28;20496;-94
2022/12/21 01:35:46;;;;;;;40.08;24.23;;;;;;;21.00;20.02;98252.09;4974557;28;20481;-93
2022/12/21 01:38:13;;;;;;;41.95;24.52;;;;;;;20.66;20.57;98248.31;4983737;28;20427;-93
2022/12/21 01:40:40;;;;;;;38.42;24.30;;;;;;;20.84;19.84;98232.25;4984238;28;20451;-92
2022/12/21 01:43:16;;;;;;;40.00;25.20;;;;;;;20.39;20.25;98245.28;4991678;28;20409;-92
2022/12/21 01:45:42;;;;;;;42.60;26.70;;;;;;;20.28;20.50;98238.91;4988068;28;20517;-92
2022/12/21 01:48:17;;;;;;;43.95;25.75;;;;;;;20.39;20.93;98236.91;4978315;28;20812;-93
2022/12/21 01:50:55;;;;;;;47.47;28.75;;;;;;;19.96;20.27;98227.88;4976679;28;20488;-93
2022/12/21 01:53:24;;;;;;;48.28;27.83;;;;;;;20.04;21.00;98233.41;4989076;28;20426;-93
2022/12/21 01:55:53;;;;;;;46.92;28.27;;;;;;;20.08;21.05;98232.22;4972481;28;20474;-92
2022/12/21 01:58:23;;;;;;;41.30;26.45;;;;;;;20.50;20.77;98228.47;4987734;28;20440;-92
2022/12/21 02:00:49;;;;;;;40.17;26.63;;;;;;;20.20;21.23;98231.78;4988567;28;20421;-92
2022/12/21 02:03:20;;;;;;;45.95;28.35;;;;;;;20.46;20.21;98233.28;4985117;28;20392;-92
2022/12/21 02:06:12;;;;;;;41.23;25.60;;;;;;;20.88;20.86;98235.84;4982126;28;20428;-91
2022/12/21 02:08:40;;;;;;;37.53;23.33;;;;;;;21.30;20.79;98224.38;4973971;28;20503;-92
2022/12/21 02:11:07;;;;;;;41.17;24.58;;;;;;;21.58;20.24;98219.72;4981983;28;20425;-91
2022/12/21 02:13:34;;;;;;;41.80;26.05;;;;;;;21.49;19.84;98214.63;4989335;28;20501;-91
2022/12/21 02:16:00;;;;;;;41.50;24.90;;;;;;;21.47;20.21;98208.63;4990008;28;20419;-91
2022/12/21 02:18:38;;;;;;;43.30;25.50;;;;;;;21.56;20.29;98205.38;4987516;28;20826;-90
2022/12/21 02:21:20;;;;;;;47.60;29.60;;;;;;;21.39;19.08;98209.13;4977784;28;20478;-90
2022/12/21 02:24:22;;;;;;;45.73;27.37;;;;;;;20.82;20.38;98211.56;4977373;28;20562;-90
2022/12/21 02:27:10;;;;;;;49.33;28.58;;;;;;;19.99;20.41;98210.34;4984787;28;20845;-90
2022/12/21 02:29:51;;;;;;;47.40;29.00;;;;;;;19.91;20.29;98208.78;4971637;28;20529;-90
2022/12/21 02:32:20;;;;;;;45.17;26.88;;;;;;;20.50;21.27;98218.13;4990856;28;20394;-90
2022/12/21 02:35:18;;;;;;;47.17;28.83;;;;;;;20.14;20.91;98210.31;4985702;28;20438;-90
2022/12/21 02:38:18;;;;;;;39.43;24.10;;;;;;;20.53;21.21;98203.38;4977735;28;20422;-90
2022/12/21 02:40:53;;;;;;;43.50;26.85;;;;;;;20.62;20.08;98220.44;4969094;28;20422;-89
2022/12/21 02:44:15;;;;;;;45.15;27.45;;;;;;;20.21;21.01;98215.84;4987725;28;20445;-90
2022/12/21 02:47:05;;;;;;;43.42;26.58;;;;;;;20.58;21.34;98211.28;4975516;28;20458;-90
2022/12/21 02:49:37;;;;;;;39.47;24.10;;;;;;;20.72;21.27;98213.22;4976922;28;20453;-90
2022/12/21 02:52:19;;;;;;;41.10;25.05;;;;;;;21.07;20.73;98215.00;4983748;28;20911;-90
2022/12/21 02:54:45;;;;;;;44.10;26.55;;;;;;;20.88;19.93;98210.72;4978824;28;20510;-90
2022/12/21 02:57:11;;;;;;;42.40;26.57;;;;;;;21.00;19.79;98207.44;4987829;28;20852;-90
2022/12/21 02:59:49;;;;;;;45.28;27.10;;;;;;;20.71;20.31;98208.81;4981641;28;20462;-90
2022/12/21 03:02:33;;;;;;;38.05;24.55;;;;;;;20.41;21.08;98208.59;4989827;28;20476;-89
2022/12/21 03:05:24;;;;;;;44.28;28.00;;;;;;;20.15;21.26;98206.28;4976330;28;20763;-89
2022/12/21 03:08:02;;;;;;;45.17;28.45;;;;;;;20.07;20.68;98196.38;5002683;28;20456;-89
2022/12/21 03:10:28;;;;;;;40.37;25.07;;;;;;;20.10;21.91;98198.34;5005895;28;20404;-89
2022/12/21 03:12:57;;;;;;;42.27;26.20;;;;;;;20.65;21.04;98202.09;4974473;28;20771;-90
2022/12/21 03:15:47;;;;;;;43.65;27.15;;;;;;;20.34;20.68;98197.47;4978686;28;20416;-90
2022/12/21 03:18:24;;;;;;;49.55;28.88;;;;;;;19.28;21.82;98186.59;4972350;28;20945;-90
2022/12/21 03:21:00;;;;;;;47.42;29.08;;;;;;;18.86;22.59;98200.50;4984550;28;20410;-90
2022/12/21 03:23:46;;;;;;;47.00;28.90;;;;;;;18.94;21.83;98204.88;4984158;28;20919;-89
2022/12/21 03:26:16;;;;;;;46.55;28.50;;;;;;;19.44;22.26;98195.34;4980314;28;20478;-90
2022/12/21 03:28:46;;;;;;;43.78;27.35;;;;;;;19.82;21.39;98197.25;4975354;28;20479;-90
2022/12/21 03:31:20;;;;;;;42.22;26.48;;;;;;;19.62;21.16;98217.59;4987474;28;20462;-90
2022/12/21 03:34:00;;;;;;;46.05;28.65;;;;;;;19.69;21.20;98228.75;4987142;28;20954;-90
2022/12/21 03:36:40;;;;;;;42.38;26.63;;;;;;;19.80;21.58;98241.44;4975341;28;20516;-90
2022/12/21 03:39:14;;;;;;;45.10;27.40;;;;;;;20.12;21.05;98241.34;4988830;28;20429;-89
2022/12/21 03:42:06;;;;;;;43.38;25.98;;;;;;;20.44;20.58;98219.72;4974324;28;20482;-89
2022/12/21 03:44:40;;;;;;;45.15;27.30;;;;;;;20.17;20.48;98229.78;4975316;28;20428;-89
2022/12/21 03:47:14;;;;;;;44.90;27.23;;;;;;;20.38;19.59;98223.34;4984847;28;20493;-89
2022/12/21 03:49:57;;;;;;;39.70;24.98;;;;;;;20.33;20.49;98229.34;4984449;28;20446;-89
2022/12/21 03:52:32;;;;;;;46.05;28.25;;;;;;;19.87;19.97;98230.28;4985108;28;20459;-89
2022/12/21 03:55:12;;;;;;;39.78;24.88;;;;;;;19.95;20.09;98245.00;4980724;28;20438;-89
2022/12/21 03:57:39;;;;;;;39.10;24.33;;;;;;;19.97;20.88;98229.47;4978272;28;20425;-88
2022/12/21 04:00:10;;;;;;;36.78;23.67;;;;;;;20.34;19.98;98234.53;4988892;28;20414;-89
2022/12/21 04:02:59;;;;;;;37.37;23.63;;;;;;;20.49;19.26;98224.88;4975135;28;20495;-89
2022/12/21 04:05:38;;;;;;;45.28;28.15;;;;;;;19.52;19.84;98219.22;4983496;28;20422;-88
2022/12/21 04:08:05;;;;;;;42.35;25.73;;;;;;;19.53;20.13;98228.38;4983792;28;20420;-89
2022/12/21 04:10:31;;;;;;;46.40;28.08;;;;;;;19.19;20.03;98225.97;4988497;28;20442;-89
2022/12/21 04:12:57;;;;;;;44.33;27.83;;;;;;;18.98;20.64;98228.72;4986416;28;20414;-89
2022/12/21 04:16:03;;;;;;;45.75;27.00;;;;;;;19.27;20.81;98229.56;4986313;28;20490;-89
2022/12/21 04:19:57;;;;;;;46.92;27.77;;;;;;;19.78;20.31;98231.91;4987354;28;20756;-89
2022/12/21 04:21:02;;;;;;;46.72;27.35;;;;;;;20.18;20.33;98228.59;4979806;28;20500;-89
2022/12/21 04:28:58;;;;;;;40.00;24.92;;;;;;;20.31;19.06;98224.19;4985404;28;20792;-88
2022/12/21 04:31:24;;;;;;;43.25;25.85;;;;;;;20.15;19.56;98214.66;4987076;28;20907;-88
2022/12/21 04:33:50;;;;;;;39.55;24.77;;;;;;;19.89;19.08;98224.31;4980466;28;20423;-88
2022/12/21 04:39:01;;;;;;;46.05;27.08;;;;;;;19.70;19.17;98221.94;4986161;28;20824;-89
2022/12/21 04:41:27;;;;;;;50.38;28.80;;;;;;;19.20;19.79;98218.41;4986425;28;20430;-89
2022/12/21 04:43:53;;;;;;;47.35;28.83;;;;;;;18.41;20.13;98227.00;4976239;28;20415;-89
2022/12/21 04:46:19;;;;;;;46.77;27.47;;;;;;;18.63;20.43;98226.69;4992368;28;20406;-88
2022/12/21 04:48:46;;;;;;;43.20;26.15;;;;;;;19.00;20.31;98234.69;4978060;28;20422;-88
2022/12/21 04:51:17;;;;;;;46.90;27.60;;;;;;;19.17;20.00;98227.56;4988600;28;20497;-88
2022/12/21 04:53:43;;;;;;;49.57;28.70;;;;;;;19.20;19.81;98210.88;4978844;28;20426;-88
2022/12/21 04:56:10;;;;;;;48.10;29.10;;;;;;;18.51;19.82;98215.94;4985940;28;20423;-88
2022/12/21 04:58:37;;;;;;;45.60;28.42;;;;;;;18.39;20.54;98215.50;4989144;28;20799;-88
2022/12/21 05:01:09;;;;;;;47.35;28.55;;;;;;;18.93;20.19;98231.91;4992785;28;20428;-88
2022/12/21 05:03:35;;;;;;;48.40;29.75;;;;;;;19.07;20.00;98231.13;4990453;28;20863;-88
2022/12/21 05:06:01;;;;;;;53.20;30.05;;;;;;;19.09;20.21;98237.88;4985926;28;20427;-88
2022/12/21 05:08:27;;;;;;;51.40;30.35;;;;;;;19.16;20.46;98240.66;4982169;28;20423;-86
2022/12/21 05:10:53;;;;;;;54.25;32.70;;;;;;;19.44;19.97;98239.88;4986029;28;20931;-88
2022/12/21 05:13:19;;;;;;;48.33;30.67;;;;;;;19.68;20.06;98241.88;4981762;28;20423;-88
2022/12/21 05:15:46;;;;;;;51.90;31.90;;;;;;;19.98;19.30;98244.97;4988614;28;20435;-88
2022/12/21 05:18:12;;;;;;;48.13;30.10;;;;;;;20.08;18.99;98239.78;4982233;28;20422;-87
2022/12/21 05:20:38;;;;;;;51.13;30.73;;;;;;;19.71;19.32;98243.06;4977802;28;20441;-86
2022/12/21 05:23:04;;;;;;;49.38;30.10;;;;;;;19.75;19.32;98239.06;4985107;28;20784;-86
2022/12/21 05:25:30;;;;;;;47.95;29.38;;;;;;;19.72;18.73;98234.28;4987681;28;20430;-88
2022/12/21 05:27:56;;;;;;;46.63;28.67;;;;;;;19.11;18.84;98245.84;4983181;28;20424;-88
2022/12/21 05:30:22;;;;;;;47.70;28.73;;;;;;;18.72;19.67;98259.69;4974037;28;20795;-88
2022/12/21 05:32:48;;;;;;;47.73;28.70;;;;;;;19.01;19.38;98249.41;4984579;28;20505;-87
2022/12/21 05:35:15;;;;;;;49.67;29.95;;;;;;;18.86;20.00;98248.59;4990300;28;20429;-87
2022/12/21 05:37:41;;;;;;;52.95;30.95;;;;;;;18.88;19.25;98251.75;4981615;28;20423;-87
2022/12/21 05:40:08;;;;;;;46.23;27.67;;;;;;;19.05;19.69;98245.44;4978851;28;20437;-87
2022/12/21 05:42:34;;;;;;;53.27;31.50;;;;;;;18.79;19.44;98231.09;4979325;28;20404;-88
2022/12/21 05:45:00;;;;;;;48.80;29.73;;;;;;;18.46;19.46;98237.78;4987280;28;20418;-88
2022/12/21 05:47:26;;;;;;;51.95;31.13;;;;;;;18.22;19.72;98213.44;4982486;28;20414;-89
2022/12/21 05:49:52;;;;;;;49.78;29.92;;;;;;;18.16;19.87;98223.31;4979226;28;20422;-85
2022/12/21 05:52:19;;;;;;;50.08;28.75;;;;;;;18.59;19.93;98217.56;4981326;28;20786;-86
2022/12/21 05:54:45;;;;;;;53.72;30.88;;;;;;;18.94;19.49;98241.06;4977858;28;20466;-89
2022/12/21 05:57:11;;;;;;;53.25;31.10;;;;;;;18.83;19.52;98232.72;4981548;28;20433;-83
2022/12/21 05:59:37;;;;;;;49.00;28.98;;;;;;;19.04;20.07;98241.06;4982151;28;20426;-89
2022/12/21 06:02:03;;;;;;;53.15;30.88;;;;;;;19.29;19.60;98235.50;4980904;28;20465;-88
2022/12/21 06:04:30;;;;;;;49.53;29.35;;;;;;;19.51;19.80;98239.13;4991448;28;20569;-89
2022/12/21 06:06:56;;;;;;;51.23;31.13;;;;;;;19.35;19.25;98239.47;4993191;28;20411;-89
2022/12/21 06:09:23;;;;;;;44.25;27.25;;;;;;;19.64;20.31;98246.66;4993271;28;20886;-89
2022/12/21 06:11:49;;;;;;;46.03;27.42;;;;;;;20.02;19.51;98234.59;4993261;28;20395;-89
2022/12/21 06:14:15;;;;;;;48.30;29.37;;;;;;;20.21;18.76;98235.34;4992345;28;20828;-89
2022/12/21 06:16:41;;;;;;;52.90;31.77;;;;;;;20.28;19.21;98227.78;4992640;28;20763;-88
2022/12/21 06:19:07;;;;;;;50.25;29.85;;;;;;;20.45;18.81;98234.47;4988745;28;20406;-89
2022/12/21 06:21:34;;;;;;;49.70;28.77;;;;;;;19.74;19.57;98228.34;4990626;28;20430;-89
2022/12/21 06:24:00;;;;;;;45.43;28.10;;;;;;;19.75;19.56;98233.50;4992795;28;20390;-88
2022/12/21 06:26:26;;;;;;;44.70;28.02;;;;;;;19.91;18.96;98245.00;4974452;28;20411;-89
2022/12/21 06:28:53;;;;;;;43.60;25.52;;;;;;;20.17;19.44;98242.91;4989384;28;20421;-89
2022/12/21 06:31:21;;;;;;;42.88;25.27;;;;;;;20.35;19.05;98238.13;4989549;28;20410;-88
2022/12/21 06:33:47;;;;;;;45.57;28.67;;;;;;;20.11;18.38;98230.59;4988562;28;20411;-89
2022/12/21 06:36:14;;;;;;;47.25;28.83;;;;;;;19.67;18.91;98239.50;4987435;28;20418;-89
2022/12/21 06:38:40;;;;;;;51.37;31.40;;;;;;;19.23;18.83;98225.94;4991555;28;20408;-89
2022/12/21 06:41:09;;;;;;;48.03;28.48;;;;;;;19.13;19.33;98240.69;4968193;28;20440;-88
2022/12/21 06:43:37;;;;;;;52.37;32.53;;;;;;;19.02;19.47;98239.88;4987932;28;20537;-89
2022/12/21 06:46:06;;;;;;;47.38;28.75;;;;;;;18.82;20.14;98244.22;4992520;28;20429;-89
2022/12/21 06:48:34;;;;;;;50.60;30.48;;;;;;;19.04;19.93;98226.38;4991965;28;20408;-88
2022/12/21 06:51:03;;;;;;;49.70;30.10;;;;;;;18.98;20.08;98222.38;4992591;28;20396;-89
2022/12/21 06:53:32;;;;;;;50.28;29.83;;;;;;;19.01;20.64;98233.53;4973873;28;20441;-88
2022/12/21 06:56:19;;;;;;;50.47;30.33;;;;;;;19.63;19.91;98216.41;4973476;28;20411;-89
2022/12/21 06:58:47;;;;;;;50.85;29.80;;;;;;;19.60;19.85;98212.44;4972322;28;20431;-86
2022/12/21 07:01:18;;;;;;;47.25;28.30;;;;;;;19.81;20.00;98204.00;4981325;28;20453;-89
2022/12/21 07:03:44;;;;;;;47.20;29.35;;;;;;;19.91;18.94;98202.41;4992196;28;20906;-89
2022/12/21 07:06:12;;;;;;;58.08;34.60;;;;;;;19.06;20.32;98194.16;4991886;28;20414;-89
2022/12/21 07:08:39;;;;;;;61.00;36.47;;;;;;;18.26;21.16;98184.47;4977571;28;20918;-88
2022/12/21 07:11:08;;;;;;;56.53;34.33;;;;;;;18.47;21.12;98190.13;4989950;28;20459;-89
2022/12/21 07:13:39;;;;;;;57.17;34.47;;;;;;;18.88;20.90;98193.34;4977127;28;20404;-89
2022/12/21 07:16:06;;;;;;;55.67;32.70;;;;;;;19.46;20.33;98187.41;4974420;28;20451;-91
2022/12/21 07:18:34;;;;;;;61.92;36.67;;;;;;;18.81;20.70;98189.78;4972990;28;20451;-90
2022/12/21 07:21:02;;;;;;;60.80;36.50;;;;;;;18.30;20.86;98213.06;4969375;28;20402;-88
2022/12/21 07:23:32;;;;;;;55.95;34.30;;;;;;;18.57;21.47;98203.25;4988079;28;20423;-88
2022/12/21 07:25:58;;;;;;;57.77;34.10;;;;;;;19.07;21.53;98186.59;4982965;28;20437;-89
2022/12/21 07:28:25;;;;;;;57.85;34.67;;;;;;;19.68;20.74;98191.72;4987876;28;20509;-88
2022/12/21 07:31:12;;;;;;;55.03;33.70;;;;;;;20.15;19.66;98190.38;4988006;28;20414;-85
2022/12/21 07:33:40;;;;;;;56.70;34.67;;;;;;;19.99;19.49;98190.84;4986226;28;20914;-89
2022/12/21 07:36:07;;;;;;;50.95;31.17;;;;;;;20.24;19.65;98176.81;4989496;28;20472;-89
2022/12/21 07:38:35;;;;;;;47.95;28.98;;;;;;;20.66;19.74;98175.78;4989194;28;20434;-88
2022/12/21 07:41:05;;;;;;;52.73;31.60;;;;;;;20.95;19.47;98187.53;4990207;28;20410;-88
2022/12/21 07:43:32;;;;;;;51.22;31.17;;;;;;;21.33;18.90;98187.22;4988771;28;20422;-88
2022/12/21 07:45:58;;;;;;;50.63;31.48;;;;;;;21.31;19.00;98181.25;4988763;28;20420;-88
2022/12/21 07:48:24;;;;;;;48.53;30.63;;;;;;;21.51;19.27;98181.47;4993536;28;20418;-88
2022/12/21 07:50:51;;;;;;;52.00;33.20;;;;;;;21.28;18.94;98173.69;4992963;28;20511;-89
2022/12/21 07:53:17;;;;;;;51.53;31.90;;;;;;;21.46;19.10;98167.97;4989324;28;20903;-88
2022/12/21 07:55:43;;;;;;;53.43;34.33;;;;;;;21.21;18.85;98159.81;4992697;28;20440;-88
2022/12/21 07:58:10;;;;;;;52.50;32.57;;;;;;;21.39;19.70;98156.06;4990287;28;20910;-88
2022/12/21 08:00:37;;;;;;;50.83;32.22;;;;;;;21.42;19.02;98153.25;4990358;28;20498;-88
2022/12/21 08:03:04;;;;;;;52.38;33.33;;;;;;;20.88;20.38;98149.31;4992262;28;20414;-88
2022/12/21 08:05:30;;;;;;;56.27;34.83;;;;;;;20.56;20.13;98141.16;4976705;28;20471;-88
2022/12/21 08:07:58;;;;;;;60.22;37.33;;;;;;;19.13;22.13;98158.00;4975973;28;20504;-88
2022/12/21 08:10:25;;;;;;;60.33;37.33;;;;;;;19.07;22.88;98165.13;4978761;28;20400;-88
2022/12/21 08:12:51;;;;;;;63.60;38.47;;;;;;;19.64;22.38;98163.09;4982568;28;20385;-88
2022/12/21 08:15:17;;;;;;;53.55;33.47;;;;;;;20.60;22.02;98157.88;4987316;28;20936;-88
2022/12/21 08:17:43;;;;;;;57.25;35.15;;;;;;;20.87;21.56;98152.50;4981666;28;20424;-88
2022/12/21 08:20:11;;;;;;;54.08;33.95;;;;;;;21.55;21.31;98161.88;4976853;28;20406;-88
2022/12/21 08:22:37;;;;;;;52.22;33.00;;;;;;;22.14;20.26;98154.84;4975807;28;20410;-88
2022/12/21 08:25:04;;;;;;;54.50;34.23;;;;;;;22.14;19.53;98146.44;4976041;28;20464;-88
2022/12/21 08:27:30;;;;;;;57.38;35.63;;;;;;;22.09;19.68;98134.94;4976020;28;20440;-88
2022/12/21 08:29:56;;;;;;;56.80;36.42;;;;;;;22.26;19.66;98136.69;4984199;28;20405;-88
2022/12/21 08:32:22;;;;;;;58.30;37.53;;;;;;;22.31;19.42;98136.25;4995505;28;20784;-88
2022/12/21 08:34:48;;;;;;;58.72;38.35;;;;;;;21.43;19.99;98128.88;4980811;28;20412;-86
2022/12/21 08:37:14;;;;;;;53.35;34.10;;;;;;;21.55;20.93;98134.75;4989311;28;20402;-90
2022/12/21 08:39:40;;;;;;;57.08;35.17;;;;;;;21.62;20.59;98131.06;4994973;28;20441;-89
2022/12/21 08:42:06;;;;;;;54.03;33.73;;;;;;;22.14;20.83;98134.47;4993565;28;20486;-89
2022/12/21 08:44:32;;;;;;;53.08;33.10;;;;;;;22.68;20.19;98142.47;4988541;28;21065;-89
2022/12/21 08:46:59;;;;;;;48.78;32.28;;;;;;;22.68;20.60;98138.91;4990927;28;20400;-90
2022/12/21 08:49:25;;;;;;;54.58;33.75;;;;;;;22.84;19.75;98133.47;4975645;28;20746;-90
2022/12/21 08:51:51;;;;;;;52.35;33.58;;;;;;;22.49;20.36;98131.19;4985055;28;20487;-90
2022/12/21 08:54:17;;;;;;;53.10;34.45;;;;;;;21.51;21.71;98134.00;4979280;28;20788;-90
2022/12/21 08:56:43;;;;;;;62.20;39.92;;;;;;;20.78;21.74;98116.69;4994311;28;20901;-90
2022/12/21 08:59:10;;;;;;;60.22;38.60;;;;;;;21.42;21.57;98130.09;4988976;28;20489;-90
2022/12/21 09:01:36;;;;;;;56.17;35.47;;;;;;;22.21;21.50;98117.59;4995010;28;20433;-90
2022/12/21 09:04:03;;;;;;;53.85;34.67;;;;;;;22.88;20.63;98125.78;4980025;28;20906;-91
2022/12/21 09:06:30;;;;;;;55.92;35.70;;;;;;;22.65;20.30;98131.34;4981155;28;20431;-91
2022/12/21 09:08:56;;;;;;;54.13;35.15;;;;;;;22.91;20.31;98135.34;4988402;28;20418;-90
2022/12/21 09:11:27;;;;;;;54.05;36.17;;;;;;;23.17;20.71;98142.91;4991254;28;20476;-90
2022/12/21 09:13:53;;;;;;;60.03;38.40;;;;;;;23.43;20.07;98133.69;4994760;28;20473;-90
2022/12/21 09:16:22;;;;;;;58.97;38.85;;;;;;;23.48;19.68;98127.56;4994758;28;20422;-90
2022/12/21 09:18:49;;;;;;;61.42;40.00;;;;;;;23.51;20.24;98117.50;4994428;28;20413;-91
2022/12/21 09:21:17;;;;;;;61.25;41.15;;;;;;;23.45;20.23;98120.03;4994189;28;20398;-89
2022/12/21 09:23:44;;;;;;;59.08;38.38;;;;;;;23.68;20.28;98125.56;4994077;28;20406;-90
2022/12/21 09:26:10;;;;;;;63.35;40.58;;;;;;;23.59;19.79;98122.56;4990344;28;20411;-90
2022/12/21 09:28:37;;;;;;;57.72;37.97;;;;;;;23.59;20.21;98118.97;4994106;28;20416;-88
2022/12/21 09:31:18;;;;;;;58.28;38.20;;;;;;;23.78;20.19;98102.13;4994296;28;20402;-89
2022/12/21 09:33:44;;;;;;;61.53;39.85;;;;;;;23.53;20.13;98085.03;4975206;28;20922;-89
2022/12/21 09:36:12;;;;;;;59.67;39.22;;;;;;;23.25;20.10;98097.53;4987122;28;20554;-90
2022/12/21 09:38:38;;;;;;;63.22;41.70;;;;;;;22.92;20.53;98115.31;4991412;28;20515;-90
2022/12/21 09:41:26;;;;;;;60.03;39.03;;;;;;;22.58;20.74;98115.44;4981512;28;20482;-90
2022/12/21 09:44:06;;;;;;;57.60;37.97;;;;;;;22.02;21.19;98124.63;4980435;28;20490;-90
2022/12/21 09:46:38;;;;;;;56.20;37.50;;;;;;;21.74;21.55;98124.94;4986647;28;20405;-90
2022/12/21 09:49:26;;;;;;;55.67;36.63;;;;;;;22.07;21.26;98126.16;4998250;28;20414;-90
2022/12/21 09:51:59;;;;;;;55.53;36.35;;;;;;;22.56;21.40;98120.69;4992615;28;20419;-90
2022/12/21 09:54:39;;;;;;;54.45;36.65;;;;;;;22.76;20.53;98120.78;4992743;28;20394;-90
2022/12/21 09:57:10;;;;;;;55.00;36.63;;;;;;;22.51;20.69;98126.75;4974579;28;20495;-90
2022/12/21 09:59:36;;;;;;;53.73;34.67;;;;;;;22.40;21.27;98136.50;4983981;28;20423;-90
2022/12/21 10:02:42;;;;;;;53.53;34.63;;;;;;;22.99;20.86;98120.00;4985311;28;20477;-90
2022/12/21 10:05:21;;;;;;;47.63;31.25;;;;;;;23.33;21.21;98107.41;4990985;28;20794;-90
2022/12/21 10:08:21;;;;;;;47.00;30.50;;;;;;;23.14;21.04;98096.16;4986690;28;20426;-90
2022/12/21 10:10:56;;;;;;;44.90;30.33;;;;;;;23.46;20.86;98103.97;4987939;28;20422;-90
2022/12/21 10:13:56;;;;;;;42.63;28.73;;;;;;;22.38;22.15;98102.56;4990882;28;20956;-90
2022/12/21 10:16:31;;;;;;;46.00;30.00;;;;;;;22.94;21.74;98095.31;4990089;28;20441;-90
2022/12/21 10:19:11;;;;;;;45.53;30.23;;;;;;;23.73;21.21;98087.84;4982975;28;20774;-90
2022/12/21 10:22:09;;;;;;;46.70;30.85;;;;;;;24.21;20.71;98090.03;4985839;28;20431;-90
2022/12/21 10:24:41;;;;;;;43.00;29.63;;;;;;;24.43;20.09;98099.56;4973838;28;20419;-90
2022/12/21 10:27:39;;;;;;;43.25;29.27;;;;;;;24.49;20.03;98090.19;4980617;28;20427;-90
2022/12/21 10:30:11;;;;;;;48.60;31.95;;;;;;;24.16;20.28;98099.75;4966170;28;20454;-89
2022/12/21 10:32:39;;;;;;;44.13;29.13;;;;;;;24.34;20.53;98088.91;4976346;28;20503;-89
2022/12/21 10:35:24;;;;;;;44.47;28.98;;;;;;;24.68;20.64;98085.72;4972946;28;20780;-90
2022/12/21 10:37:53;;;;;;;43.50;29.20;;;;;;;24.71;19.82;98102.47;4973179;28;20777;-90
2022/12/21 10:40:27;;;;;;;40.03;27.60;;;;;;;24.74;20.50;98101.59;4980460;28;20407;-90
2022/12/21 10:42:54;;;;;;;41.10;27.20;;;;;;;24.85;20.66;98103.41;4987261;28;20410;-90
2022/12/21 10:45:23;;;;;;;41.88;27.67;;;;;;;24.98;19.99;98101.47;4984047;28;20431;-90
2022/12/21 10:47:50;;;;;;;41.90;27.65;;;;;;;25.08;20.15;98089.16;4973597;28;20490;-90
2022/12/21 10:50:32;;;;;;;42.10;27.40;;;;;;;25.20;19.90;98096.88;4976918;28;20392;-90
2022/12/21 10:53:00;;;;;;;41.25;27.08;;;;;;;25.19;19.54;98086.88;4974808;28;20793;-90
2022/12/21 10:55:34;;;;;;;37.60;24.97;;;;;;;25.06;19.91;98094.44;4987737;28;20411;-90
2022/12/21 10:58:23;;;;;;;41.20;27.25;;;;;;;24.89;20.28;98099.28;4990607;28;20503;-90
2022/12/21 11:01:02;;;;;;;41.55;27.52;;;;;;;24.83;20.10;98086.22;4986764;28;20422;-90
2022/12/21 11:03:36;;;;;;;41.47;26.73;;;;;;;25.11;20.14;98077.81;4987917;28;20406;-90
2022/12/21 11:06:16;;;;;;;38.30;26.23;;;;;;;25.37;19.38;98082.34;4985956;28;20488;-89
2022/12/21 11:08:48;;;;;;;38.63;27.20;;;;;;;25.18;19.71;98083.25;4973642;28;20410;-90
2022/12/21 11:11:33;;;;;;;44.83;28.75;;;;;;;25.12;20.16;98073.81;4983294;28;20418;-91
2022/12/21 11:14:12;;;;;;;46.15;29.55;;;;;;;24.59;19.95;98072.31;4990281;28;20422;-90
2022/12/21 11:16:39;;;;;;;47.10;31.13;;;;;;;22.96;21.46;98076.06;4991801;28;20422;-91
2022/12/21 11:19:11;;;;;;;47.50;31.60;;;;;;;23.30;22.06;98071.81;4992409;28;20420;-91
2022/12/21 11:21:43;;;;;;;49.85;32.80;;;;;;;23.58;21.30;98078.91;4992652;28;20467;-89
2022/12/21 11:24:16;;;;;;;49.83;33.17;;;;;;;23.09;21.17;98065.81;4984914;28;21168;-88
2022/12/21 11:26:56;;;;;;;46.03;31.17;;;;;;;23.83;21.61;98056.75;4993205;28;20429;-89
2022/12/21 11:29:27;;;;;;;45.75;30.52;;;;;;;24.42;20.57;98056.66;4989923;28;20406;-88
2022/12/21 11:31:55;;;;;;;49.17;32.47;;;;;;;24.65;20.57;98053.69;4971227;28;20426;-89
2022/12/21 11:34:30;;;;;;;47.13;31.50;;;;;;;24.86;20.00;98057.22;4990418;28;20418;-89
2022/12/21 11:37:00;;;;;;;45.10;31.13;;;;;;;23.78;20.82;98050.91;4992547;28;20528;-89
2022/12/21 11:39:26;;;;;;;42.83;28.17;;;;;;;24.32;21.33;98035.25;4993297;28;20922;-89
2022/12/21 11:41:54;;;;;;;43.95;30.13;;;;;;;24.66;20.51;98040.47;4980664;28;20506;-88
2022/12/21 11:44:29;;;;;;;43.90;30.00;;;;;;;24.50;20.41;98032.84;4989901;28;20484;-88